Hamden, Ohio
Current Conditions -  °F | °C
As of 1:30 PM on Monday 26 Jan 2015 (Local Time) from KUNI Reporting Station
Overcast Overcast  
Wind Chill: 17°   Ceiling: 1200
Heat Index: 27°   Visibility: 10mi
Dew Point: 22°   Wind: 12mph
Humidity: 83%   Direction: 280°W
Pressure: 29.79"   Gusts: NA
Location:  39.16°N, 82.53°W
Report Text: KUNI 261830Z AUTO 28010KT 10SM OVC012 M03/M05 A2979 RMK AO2 T10271053
Loading
Personal Weather Stations






























Interactive Weather Map New forecast layout! Learn more

10-Day Weather Forecast

Advertisements
Track Severe Weather on mobile